Time;durP1;ratioP1;P1;durP2;ratioP2;P2;SDS_P1;SDS_P2;PMS_P1;PMS_P2;Temp;Humidity;BMP_temperature;BMP_pressure;BME280_temperature;BME280_humidity;BME280_pressure;Samples;Min_cycle;Max_cycle;Signal;HPM_P1;HPM_P2
2021/01/05 00:00:16;;;;;;;61.40;20.37;;;5.40;99.90;;;;;;4957999;28;20322;-94
2021/01/05 00:02:42;;;;;;;71.97;23.30;;;5.30;99.90;;;;;;4938909;29;20179;-94
2021/01/05 00:05:08;;;;;;;51.47;18.57;;;5.40;99.90;;;;;;4955872;29;20194;-95
2021/01/05 00:07:34;;;;;;;65.50;21.73;;;5.30;99.90;;;;;;4937946;29;20715;-95
2021/01/05 00:10:00;;;;;;;71.17;23.30;;;5.40;99.90;;;;;;4936437;29;20191;-95
2021/01/05 00:12:26;;;;;;;63.43;22.43;;;5.30;99.90;;;;;;4935976;29;20180;-94
2021/01/05 00:14:52;;;;;;;53.77;19.10;;;5.30;99.90;;;;;;4937572;29;20239;-95
2021/01/05 00:17:20;;;;;;;52.43;19.23;;;5.30;99.90;;;;;;4943047;29;20616;-95
2021/01/05 00:19:46;;;;;;;54.27;19.80;;;5.30;99.90;;;;;;4943912;29;20196;-96
2021/01/05 00:22:13;;;;;;;53.60;19.60;;;5.30;99.90;;;;;;4944656;29;20186;-94
2021/01/05 00:24:39;;;;;;;54.37;17.87;;;5.30;99.90;;;;;;4954675;28;20254;-95
2021/01/05 00:27:06;;;;;;;51.83;19.70;;;5.20;99.90;;;;;;4963591;29;20215;-96
2021/01/05 00:29:32;;;;;;;49.57;20.07;;;5.30;99.90;;;;;;4959021;29;20215;-95
2021/01/05 00:32:19;;;;;;;50.63;19.27;;;5.20;99.90;;;;;;4941927;29;20215;-94
2021/01/05 00:34:46;;;;;;;56.67;20.80;;;5.30;99.90;;;;;;4942719;29;20178;-95
2021/01/05 00:37:13;;;;;;;54.83;18.27;;;5.20;99.90;;;;;;4939187;29;20219;-95
2021/01/05 00:39:39;;;;;;;55.40;18.90;;;5.20;99.90;;;;;;4940440;29;20653;-93
2021/01/05 00:42:04;;;;;;;54.47;19.03;;;5.20;99.90;;;;;;4935720;29;20246;-94
2021/01/05 00:44:30;;;;;;;52.27;18.70;;;5.20;99.90;;;;;;4936793;29;20221;-94
2021/01/05 00:46:57;;;;;;;50.13;17.53;;;5.20;99.90;;;;;;4939390;29;20656;-93
2021/01/05 00:49:23;;;;;;;36.93;15.43;;;5.20;99.90;;;;;;4953681;29;20190;-95
2021/01/05 00:51:48;;;;;;;36.97;14.80;;;5.20;99.90;;;;;;4957923;29;20195;-93
2021/01/05 00:54:14;;;;;;;33.93;13.90;;;5.20;99.90;;;;;;4937934;29;20180;-95
2021/01/05 00:56:40;;;;;;;33.37;14.33;;;5.20;99.90;;;;;;4938875;29;20243;-94
2021/01/05 00:59:06;;;;;;;32.93;12.97;;;5.20;99.90;;;;;;4943284;29;20811;-95
2021/01/05 01:01:31;;;;;;;32.00;13.57;;;5.20;99.90;;;;;;4944703;29;20191;-95
2021/01/05 01:03:57;;;;;;;29.87;13.80;;;5.20;99.90;;;;;;4958058;29;20198;-94
2021/01/05 01:06:23;;;;;;;33.67;14.13;;;5.10;99.90;;;;;;4940693;29;20222;-96
2021/01/05 01:08:49;;;;;;;38.80;15.17;;;5.10;99.90;;;;;;4939762;29;20190;-96
2021/01/05 01:11:15;;;;;;;28.73;12.60;;;5.10;99.90;;;;;;4944549;29;20187;-94
2021/01/05 01:13:41;;;;;;;38.20;15.70;;;5.10;99.90;;;;;;4941987;29;20187;-96
2021/01/05 01:16:07;;;;;;;25.40;11.77;;;5.10;99.90;;;;;;4962905;28;20203;-96
2021/01/05 01:18:33;;;;;;;26.10;11.63;;;5.10;99.90;;;;;;4942539;29;20211;-95
2021/01/05 01:20:58;;;;;;;29.90;11.83;;;5.10;99.90;;;;;;4941331;29;20202;-96
2021/01/05 01:23:24;;;;;;;30.83;11.90;;;5.10;99.90;;;;;;4959532;29;20180;-93
2021/01/05 01:25:50;;;;;;;16.97;9.17;;;5.10;99.90;;;;;;4924650;29;20218;-94
2021/01/05 01:28:16;;;;;;;21.73;10.33;;;5.10;99.90;;;;;;4959536;28;20192;-95
2021/01/05 01:30:42;;;;;;;28.37;12.30;;;5.10;99.90;;;;;;4937847;29;20190;-95
2021/01/05 01:33:08;;;;;;;21.77;10.27;;;5.10;99.90;;;;;;4956520;29;20183;-96
2021/01/05 01:35:34;;;;;;;15.23;8.73;;;5.10;99.90;;;;;;4924940;29;20280;-90
2021/01/05 01:38:00;;;;;;;17.87;8.80;;;5.10;99.90;;;;;;4942416;29;20233;-96
2021/01/05 01:40:31;;;;;;;18.97;9.10;;;5.10;99.90;;;;;;4939934;29;20645;-96
2021/01/05 01:42:57;;;;;;;25.40;9.83;;;5.10;99.90;;;;;;4939252;29;20190;-95
2021/01/05 01:45:24;;;;;;;16.80;8.37;;;5.10;99.90;;;;;;4943637;29;20199;-95
2021/01/05 01:47:50;;;;;;;15.40;7.77;;;5.10;99.90;;;;;;4937382;29;20194;-95
2021/01/05 01:50:23;;;;;;;15.23;8.10;;;5.10;99.90;;;;;;4939459;29;20184;-95
2021/01/05 01:53:10;;;;;;;13.73;8.30;;;5.20;99.90;;;;;;4943322;29;20564;-95
2021/01/05 01:56:06;;;;;;;12.77;7.03;;;5.10;99.90;;;;;;4958297;29;20195;-95
2021/01/05 01:58:58;;;;;;;15.63;6.77;;;5.00;99.90;;;;;;4944480;29;20238;-95
2021/01/05 02:01:54;;;;;;;12.77;6.73;;;5.00;99.90;;;;;;4942311;29;20271;-96
2021/01/05 02:04:38;;;;;;;12.93;6.43;;;5.00;99.90;;;;;;4939329;29;20706;-96
2021/01/05 02:07:41;;;;;;;12.93;6.60;;;5.00;99.90;;;;;;4942875;29;20201;-94
2021/01/05 02:10:41;;;;;;;12.07;6.67;;;5.00;99.90;;;;;;4958541;29;20199;-92
2021/01/05 02:13:37;;;;;;;12.33;5.73;;;5.00;99.90;;;;;;4960165;28;20159;-91
2021/01/05 02:16:37;;;;;;;12.27;6.40;;;5.00;99.90;;;;;;4961031;29;20279;-92
2021/01/05 02:19:20;;;;;;;13.43;6.90;;;5.00;99.90;;;;;;4954425;29;20404;-96
2021/01/05 02:22:28;;;;;;;13.37;6.07;;;5.00;99.90;;;;;;4944551;29;20189;-96
2021/01/05 02:25:38;;;;;;;8.47;4.97;;;5.00;99.90;;;;;;5024824;23;20234;-90
2021/01/05 02:28:07;;;;;;;9.77;4.97;;;4.90;99.90;;;;;;4894626;29;20213;-93
2021/01/05 02:30:40;;;;;;;9.77;5.50;;;4.90;99.90;;;;;;4967051;23;20247;-95
2021/01/05 02:33:25;;;;;;;11.47;5.03;;;5.10;99.90;;;;;;4919643;29;20184;-95
2021/01/05 02:36:09;;;;;;;8.33;5.10;;;5.30;99.90;;;;;;4922861;29;20204;-95
2021/01/05 02:39:13;;;;;;;8.43;5.30;;;4.90;99.90;;;;;;4924296;29;20209;-96
2021/01/05 02:42:10;;;;;;;7.33;4.07;;;4.90;99.90;;;;;;4883802;29;20192;-96
2021/01/05 02:44:57;;;;;;;8.07;5.00;;;4.90;99.90;;;;;;4921117;29;20194;-95
2021/01/05 02:47:35;;;;;;;7.17;3.93;;;4.90;99.90;;;;;;4925538;29;20212;-94
2021/01/05 02:50:22;;;;;;;7.60;4.03;;;4.80;99.90;;;;;;4925658;29;20176;-95
2021/01/05 02:53:09;;;;;;;6.70;3.70;;;4.80;99.90;;;;;;4932943;29;20231;-96
2021/01/05 02:56:26;;;;;;;7.60;4.20;;;4.80;99.90;;;;;;4930790;29;20175;-96
2021/01/05 02:59:28;;;;;;;4.73;3.50;;;4.70;99.90;;;;;;4926604;29;20188;-96
2021/01/05 03:02:11;;;;;;;7.37;4.23;;;4.80;99.90;;;;;;4923605;29;20194;-95
2021/01/05 03:04:37;;;;;;;6.47;3.60;;;4.70;99.90;;;;;;4927023;29;20275;-95
2021/01/05 03:07:14;;;;;;;8.40;4.40;;;4.70;99.90;;;;;;4910739;29;20220;-96
2021/01/05 03:09:57;;;;;;;6.97;3.83;;;4.70;99.90;;;;;;4926219;29;20187;-95
2021/01/05 03:12:44;;;;;;;7.33;4.13;;;4.80;99.90;;;;;;4928675;29;20212;-95
2021/01/05 03:15:19;;;;;;;8.63;4.30;;;4.70;99.90;;;;;;4924124;29;20183;-96
2021/01/05 03:17:53;;;;;;;6.33;3.60;;;4.70;99.90;;;;;;4930880;29;20223;-94
2021/01/05 03:20:32;;;;;;;10.53;4.53;;;4.80;99.90;;;;;;4924792;29;20180;-94
2021/01/05 03:23:06;;;;;;;7.20;4.30;;;4.70;99.90;;;;;;4923715;29;20163;-96
2021/01/05 03:25:36;;;;;;;8.57;4.17;;;4.70;99.90;;;;;;4922607;29;20177;-95
2021/01/05 03:28:05;;;;;;;8.07;4.47;;;4.80;99.90;;;;;;4905057;29;20196;-95
2021/01/05 03:30:39;;;;;;;6.10;3.90;;;4.80;99.90;;;;;;4920761;29;20228;-94
2021/01/05 03:33:04;;;;;;;7.83;4.60;;;4.70;99.90;;;;;;4918708;29;20200;-95
2021/01/05 03:35:30;;;;;;;5.33;3.30;;;4.70;99.90;;;;;;4918807;29;20232;-94
2021/01/05 03:37:57;;;;;;;5.80;3.53;;;4.70;99.90;;;;;;4918206;29;20692;-95
2021/01/05 03:40:24;;;;;;;6.03;3.63;;;4.70;99.90;;;;;;4913128;29;20172;-92
2021/01/05 03:42:50;;;;;;;5.03;3.40;;;4.80;99.90;;;;;;4936571;29;20200;-91
2021/01/05 03:45:25;;;;;;;6.70;3.47;;;4.80;99.90;;;;;;4934918;29;20164;-94
2021/01/05 03:47:52;;;;;;;7.57;3.70;;;4.80;99.90;;;;;;4918083;29;20183;-94
2021/01/05 03:50:19;;;;;;;4.93;3.20;;;5.00;99.90;;;;;;4918265;29;20203;-96
2021/01/05 03:52:44;;;;;;;6.30;4.13;;;4.80;99.90;;;;;;4916760;29;20199;-94
2021/01/05 03:55:12;;;;;;;5.37;3.57;;;4.70;99.90;;;;;;4903342;29;20194;-95
2021/01/05 03:57:38;;;;;;;6.43;3.60;;;;;;;;;;4923323;29;20227;-96
2021/01/05 04:00:09;;;;;;;5.77;3.27;;;4.70;99.90;;;;;;4907792;29;20246;-95
2021/01/05 04:02:35;;;;;;;5.23;3.30;;;4.70;99.90;;;;;;4921712;29;20184;-96
2021/01/05 04:05:01;;;;;;;5.40;3.60;;;4.80;99.90;;;;;;4922703;29;20708;-96
2021/01/05 04:07:26;;;;;;;6.77;3.60;;;4.70;99.90;;;;;;4903053;29;20188;-91
2021/01/05 04:09:53;;;;;;;5.70;3.30;;;4.70;99.90;;;;;;4903353;29;20212;-94
2021/01/05 04:12:19;;;;;;;5.00;3.07;;;4.70;99.90;;;;;;4918186;29;20215;-94
2021/01/05 04:14:45;;;;;;;6.23;3.30;;;5.00;99.90;;;;;;4920492;29;20278;-96
2021/01/05 04:17:12;;;;;;;4.90;3.13;;;4.70;99.90;;;;;;4903467;29;20245;-95
2021/01/05 04:19:38;;;;;;;4.73;3.37;;;4.70;99.90;;;;;;4902091;29;20672;-95
2021/01/05 04:22:04;;;;;;;6.00;3.63;;;4.70;99.90;;;;;;4915763;29;20218;-96
2021/01/05 04:24:29;;;;;;;5.03;3.27;;;4.70;99.90;;;;;;4921933;29;20246;-95
2021/01/05 04:26:55;;;;;;;4.23;3.07;;;4.70;99.90;;;;;;4919635;29;20523;-94
2021/01/05 04:29:21;;;;;;;5.23;3.40;;;4.70;99.90;;;;;;4904307;29;20246;-94
2021/01/05 04:31:47;;;;;;;4.63;3.40;;;4.60;99.90;;;;;;4919851;29;20185;-95
2021/01/05 04:34:14;;;;;;;4.77;3.37;;;4.70;99.90;;;;;;4923718;29;20191;-95
2021/01/05 04:36:40;;;;;;;3.60;3.20;;;4.60;99.90;;;;;;4937044;29;20210;-95
2021/01/05 04:39:06;;;;;;;4.93;3.00;;;4.80;99.90;;;;;;4924531;29;20277;-96
2021/01/05 04:41:45;;;;;;;6.33;3.77;;;4.70;99.90;;;;;;4926072;29;20665;-96
2021/01/05 04:44:14;;;;;;;5.67;3.30;;;4.70;99.90;;;;;;4949701;29;20199;-96
2021/01/05 04:47:21;;;;;;;4.57;2.93;;;4.70;99.90;;;;;;4927022;29;20216;-96
2021/01/05 04:50:02;;;;;;;5.53;3.30;;;4.60;99.90;;;;;;4939096;29;20183;-96
2021/01/05 04:52:37;;;;;;;4.67;3.50;;;4.60;99.90;;;;;;4924303;29;20207;-93
2021/01/05 04:55:26;;;;;;;5.37;3.60;;;4.60;99.90;;;;;;4944346;29;20183;-91
2021/01/05 04:58:03;;;;;;;6.30;3.50;;;4.60;99.90;;;;;;4924440;29;20217;-94
2021/01/05 05:00:31;;;;;;;6.03;3.33;;;4.60;99.90;;;;;;4920456;29;20186;-96
2021/01/05 05:02:56;;;;;;;4.40;2.90;;;4.60;99.90;;;;;;4919967;29;20192;-96
2021/01/05 05:05:46;;;;;;;4.57;3.57;;;4.60;99.90;;;;;;4921434;29;20198;-95
2021/01/05 05:08:47;;;;;;;5.00;3.50;;;4.60;99.90;;;;;;4920845;29;20176;-96
2021/01/05 05:11:18;;;;;;;5.90;3.63;;;4.60;99.90;;;;;;4935778;29;20187;-95
2021/01/05 05:13:53;;;;;;;5.43;3.70;;;4.60;99.90;;;;;;4922709;29;20212;-96
2021/01/05 05:16:36;;;;;;;6.87;3.73;;;4.60;99.90;;;;;;4921037;29;20263;-96
2021/01/05 05:19:51;;;;;;;6.90;3.60;;;4.60;99.90;;;;;;4938156;29;20192;-96
2021/01/05 05:22:28;;;;;;;7.67;3.87;;;4.60;99.90;;;;;;4865583;29;20193;-96
2021/01/05 05:25:12;;;;;;;5.77;4.00;;;4.60;99.90;;;;;;4865065;29;20183;-96
2021/01/05 05:27:50;;;;;;;7.70;3.87;;;4.60;99.90;;;;;;4925757;29;20184;-96
2021/01/05 05:30:34;;;;;;;6.17;3.70;;;4.60;99.90;;;;;;4927715;29;20319;-95
2021/01/05 05:33:03;;;;;;;6.03;3.90;;;4.60;99.90;;;;;;4924503;29;20180;-96
2021/01/05 05:35:41;;;;;;;5.37;4.00;;;4.60;99.90;;;;;;4923034;29;20184;-96
2021/01/05 05:38:29;;;;;;;7.73;3.70;;;4.60;99.90;;;;;;4922565;29;20677;-92
2021/01/05 05:41:16;;;;;;;7.33;4.50;;;4.60;99.90;;;;;;4919677;29;20204;-95
2021/01/05 05:43:47;;;;;;;7.53;4.97;;;4.60;99.90;;;;;;4922625;29;20247;-93
2021/01/05 05:46:24;;;;;;;8.37;5.17;;;4.60;99.90;;;;;;4919604;29;20194;-95
2021/01/05 05:49:05;;;;;;;10.37;7.10;;;4.60;99.90;;;;;;4922464;29;20186;-95
2021/01/05 05:51:40;;;;;;;8.73;5.30;;;4.60;99.90;;;;;;4928054;29;20646;-96
2021/01/05 05:54:10;;;;;;;5.73;4.50;;;4.70;99.90;;;;;;4924643;29;20197;-96
2021/01/05 05:56:45;;;;;;;8.53;6.17;;;4.60;99.90;;;;;;4927530;29;20288;-96
2021/01/05 05:59:12;;;;;;;9.37;6.57;;;4.60;99.90;;;;;;4927763;29;20719;-96
2021/01/05 06:01:40;;;;;;;10.37;7.07;;;4.70;99.90;;;;;;4907782;29;20660;-96
2021/01/05 06:04:07;;;;;;;12.30;8.50;;;4.60;99.90;;;;;;4929270;29;20180;-95
2021/01/05 06:06:35;;;;;;;16.23;9.97;;;4.80;99.90;;;;;;4922812;29;20184;-94
2021/01/05 06:09:00;;;;;;;13.37;8.93;;;4.60;99.90;;;;;;4922820;29;20187;-95
2021/01/05 06:11:26;;;;;;;14.00;9.97;;;4.70;99.90;;;;;;4901805;29;20650;-91
2021/01/05 06:13:51;;;;;;;13.57;9.00;;;4.70;99.90;;;;;;4901939;29;20194;-91
2021/01/05 06:16:17;;;;;;;15.77;9.07;;;4.70;99.90;;;;;;4917969;29;20188;-93
2021/01/05 06:18:43;;;;;;;18.37;9.30;;;4.70;99.90;;;;;;4918261;29;20265;-94
2021/01/05 06:21:08;;;;;;;13.83;8.70;;;4.70;99.90;;;;;;4901623;29;20219;-95
2021/01/05 06:23:34;;;;;;;15.23;9.20;;;4.80;99.90;;;;;;4918603;29;20230;-95
2021/01/05 06:26:00;;;;;;;13.77;9.40;;;4.60;99.90;;;;;;4921102;29;20187;-93
2021/01/05 06:28:25;;;;;;;15.57;9.93;;;4.70;99.90;;;;;;4903629;29;20189;-90
2021/01/05 06:30:51;;;;;;;16.87;10.90;;;4.70;99.90;;;;;;4930474;29;20247;-93
2021/01/05 06:33:17;;;;;;;16.13;10.57;;;4.70;99.90;;;;;;4917704;29;20253;-91
2021/01/05 06:35:42;;;;;;;17.00;10.10;;;4.70;99.90;;;;;;4920122;29;20188;-90
2021/01/05 06:38:08;;;;;;;15.03;9.20;;;4.70;99.90;;;;;;4901740;29;20200;-90
2021/01/05 06:40:34;;;;;;;16.90;10.77;;;4.70;99.90;;;;;;4916955;29;20761;-90
2021/01/05 06:43:00;;;;;;;19.63;10.33;;;4.70;99.90;;;;;;4899637;29;20195;-88
2021/01/05 06:45:32;;;;;;;17.27;9.93;;;4.70;99.90;;;;;;4929700;29;20215;-94
2021/01/05 06:47:58;;;;;;;16.30;10.80;;;4.70;99.90;;;;;;4915774;29;20653;-92
2021/01/05 06:50:27;;;;;;;22.17;12.60;;;4.70;99.90;;;;;;4916490;29;20188;-94
2021/01/05 06:52:52;;;;;;;21.63;13.17;;;4.70;99.90;;;;;;4916855;29;20414;-93
2021/01/05 06:55:19;;;;;;;21.07;12.90;;;4.70;99.90;;;;;;4932695;29;20656;-95
2021/01/05 06:57:45;;;;;;;19.77;11.87;;;4.70;99.90;;;;;;4916870;29;20228;-95
2021/01/05 07:00:20;;;;;;;21.77;11.97;;;4.80;99.90;;;;;;4900791;29;20192;-96
2021/01/05 07:02:47;;;;;;;34.30;15.50;;;4.70;99.90;;;;;;4918992;29;20186;-91
2021/01/05 07:05:13;;;;;;;24.20;12.60;;;4.70;99.90;;;;;;4920967;29;20284;-95
2021/01/05 07:07:38;;;;;;;19.00;11.73;;;4.80;99.90;;;;;;4922090;29;20200;-96
2021/01/05 07:10:06;;;;;;;21.73;11.13;;;4.80;99.90;;;;;;4904010;29;20198;-94
2021/01/05 07:12:32;;;;;;;18.20;10.77;;;4.80;99.90;;;;;;4910023;29;20188;-96
2021/01/05 07:15:00;;;;;;;29.77;16.50;;;4.80;99.90;;;;;;4925351;29;20256;-93
2021/01/05 07:17:25;;;;;;;21.63;11.67;;;4.80;99.90;;;;;;4918215;29;20246;-94
2021/01/05 07:19:51;;;;;;;26.10;14.27;;;4.80;99.90;;;;;;4901770;29;20196;-95
2021/01/05 07:22:17;;;;;;;21.47;11.03;;;4.80;99.90;;;;;;4918608;29;20202;-94
2021/01/05 07:24:42;;;;;;;21.53;11.97;;;4.80;99.90;;;;;;4920740;29;20214;-96
2021/01/05 07:27:08;;;;;;;22.67;12.47;;;4.80;99.90;;;;;;4907238;29;20227;-96
2021/01/05 07:29:34;;;;;;;18.37;10.73;;;4.80;99.90;;;;;;4922113;29;20294;-95
2021/01/05 07:32:00;;;;;;;20.60;11.03;;;4.90;99.90;;;;;;4901680;29;20716;-94
2021/01/05 07:34:25;;;;;;;17.50;9.60;;;4.90;99.90;;;;;;4902361;29;20690;-94
2021/01/05 07:37:01;;;;;;;19.10;9.50;;;4.80;99.90;;;;;;4884096;29;20791;-95
2021/01/05 07:39:29;;;;;;;17.33;9.10;;;4.80;99.90;;;;;;4917035;29;20215;-94
2021/01/05 07:42:21;;;;;;;20.17;10.13;;;4.80;99.90;;;;;;4900940;29;20660;-95
2021/01/05 07:44:49;;;;;;;16.17;8.73;;;4.80;99.90;;;;;;4902168;29;20185;-93
2021/01/05 07:47:16;;;;;;;24.10;10.87;;;4.90;99.90;;;;;;4919689;29;20196;-95
2021/01/05 07:49:42;;;;;;;17.63;9.93;;;4.90;99.90;;;;;;4904736;29;20191;-95
2021/01/05 07:52:32;;;;;;;15.53;8.77;;;4.90;99.90;;;;;;4924906;29;20651;-96
2021/01/05 07:54:59;;;;;;;16.90;8.17;;;4.80;99.90;;;;;;4919718;29;20186;-94
2021/01/05 07:57:24;;;;;;;17.40;8.57;;;4.90;99.90;;;;;;4922754;29;20237;-91
2021/01/05 07:59:50;;;;;;;20.07;8.47;;;4.80;99.90;;;;;;4917165;29;20519;-89
2021/01/05 08:02:16;;;;;;;17.83;8.90;;;4.80;99.90;;;;;;4900622;29;20187;-93
2021/01/05 08:04:42;;;;;;;19.03;9.00;;;4.80;99.90;;;;;;4905071;29;20711;-94
2021/01/05 08:07:09;;;;;;;16.20;7.87;;;4.90;99.90;;;;;;4905993;29;20280;-96
2021/01/05 08:09:37;;;;;;;15.87;7.43;;;4.80;99.90;;;;;;4894805;29;20188;-95
2021/01/05 08:12:03;;;;;;;16.53;8.10;;;4.90;99.90;;;;;;4905592;29;20220;-94
2021/01/05 08:14:29;;;;;;;20.90;10.07;;;4.90;99.90;;;;;;4918968;29;20233;-92
2021/01/05 08:16:55;;;;;;;19.20;9.37;;;4.90;99.90;;;;;;4902692;29;20250;-92
2021/01/05 08:19:20;;;;;;;15.43;8.17;;;4.90;99.90;;;;;;4903157;29;20662;-90
2021/01/05 08:21:46;;;;;;;17.20;8.50;;;4.90;99.90;;;;;;4905220;29;20204;-90
2021/01/05 08:24:11;;;;;;;17.03;8.27;;;5.00;99.90;;;;;;4907453;29;20716;-90
2021/01/05 08:26:37;;;;;;;15.83;8.80;;;4.90;99.90;;;;;;4909495;29;20192;-90
2021/01/05 08:29:03;;;;;;;15.40;9.00;;;4.90;99.90;;;;;;4914196;29;20769;-88
2021/01/05 08:31:37;;;;;;;18.90;9.87;;;4.90;99.90;;;;;;4932292;29;20177;-92
2021/01/05 08:34:03;;;;;;;14.03;8.40;;;4.90;99.90;;;;;;4912820;29;20192;-94
2021/01/05 08:36:30;;;;;;;18.97;9.37;;;4.90;99.90;;;;;;4927634;29;20196;-91
2021/01/05 08:38:56;;;;;;;15.80;8.27;;;5.40;99.90;;;;;;4928708;29;20246;-89
2021/01/05 08:41:22;;;;;;;20.10;9.27;;;5.10;99.90;;;;;;4907514;29;20204;-89
2021/01/05 08:43:48;;;;;;;16.33;8.23;;;5.40;99.90;;;;;;4884001;29;20665;-89
2021/01/05 08:46:25;;;;;;;15.40;8.87;;;5.80;99.90;;;;;;4890458;29;20194;-92
2021/01/05 08:48:51;;;;;;;21.87;10.87;;;6.50;99.90;;;;;;4924362;29;20203;-92
2021/01/05 08:51:19;;;;;;;19.87;11.07;;;5.60;99.90;;;;;;4906036;29;20188;-95
2021/01/05 08:53:45;;;;;;;34.87;16.20;;;5.40;99.90;;;;;;4904874;29;20181;-89
2021/01/05 08:56:19;;;;;;;34.93;16.27;;;5.20;99.90;;;;;;4887613;29;20211;-90
2021/01/05 08:58:45;;;;;;;34.83;15.83;;;5.10;99.90;;;;;;4902542;29;20190;-96
2021/01/05 09:01:12;;;;;;;33.03;12.90;;;5.00;99.90;;;;;;4920912;29;20183;-93
2021/01/05 09:03:37;;;;;;;28.97;13.17;;;5.00;99.90;;;;;;4889003;29;20195;-94
2021/01/05 09:06:05;;;;;;;23.27;12.03;;;5.00;99.90;;;;;;4906455;29;20549;-93
2021/01/05 09:08:30;;;;;;;25.23;12.83;;;5.00;99.90;;;;;;4904748;29;20195;-93
2021/01/05 09:10:58;;;;;;;25.77;11.20;;;5.00;99.90;;;;;;4905216;29;20184;-96
2021/01/05 09:13:24;;;;;;;29.50;11.50;;;5.10;99.90;;;;;;4889688;29;21576;-96
2021/01/05 09:15:51;;;;;;;23.50;10.97;;;5.00;99.90;;;;;;4923228;29;20207;-96
2021/01/05 09:18:17;;;;;;;22.53;11.23;;;5.00;99.90;;;;;;4887509;29;20563;-96
2021/01/05 09:20:42;;;;;;;20.97;9.83;;;5.00;99.90;;;;;;4888486;29;20188;-94
2021/01/05 09:23:08;;;;;;;25.27;10.83;;;5.00;99.90;;;;;;4870002;29;20196;-94
2021/01/05 09:25:36;;;;;;;25.67;10.97;;;5.20;99.90;;;;;;4921109;29;20184;-93
2021/01/05 09:28:02;;;;;;;32.37;14.50;;;5.00;99.90;;;;;;4887223;29;20189;-92
2021/01/05 09:30:27;;;;;;;27.30;13.13;;;5.00;99.90;;;;;;4898217;29;20235;-93
2021/01/05 09:32:53;;;;;;;25.80;13.80;;;5.10;99.90;;;;;;4919407;29;20488;-90
2021/01/05 09:35:18;;;;;;;22.00;11.10;;;5.00;99.90;;;;;;4919660;29;20194;-96
2021/01/05 09:37:47;;;;;;;17.30;9.57;;;5.20;99.90;;;;;;4917525;29;20212;-93
2021/01/05 09:40:14;;;;;;;19.13;9.50;;;5.00;99.90;;;;;;4918014;29;20224;-91
2021/01/05 09:42:40;;;;;;;25.47;11.63;;;5.00;99.90;;;;;;4918076;29;20190;-87
2021/01/05 09:45:07;;;;;;;20.93;9.17;;;5.10;99.90;;;;;;4917332;29;20193;-93
2021/01/05 09:47:33;;;;;;;24.23;10.57;;;5.00;99.90;;;;;;4902625;29;20740;-92
2021/01/05 09:49:59;;;;;;;21.63;10.77;;;5.00;99.90;;;;;;4902129;29;20274;-91
2021/01/05 09:52:24;;;;;;;18.30;8.87;;;5.00;99.90;;;;;;4918298;29;20198;-90
2021/01/05 09:54:53;;;;;;;18.60;9.13;;;5.00;99.90;;;;;;4918834;29;20303;-91
2021/01/05 09:57:19;;;;;;;22.00;9.33;;;5.00;99.90;;;;;;4922716;29;20208;-94
2021/01/05 09:59:45;;;;;;;14.30;7.50;;;5.10;99.90;;;;;;4924804;29;20683;-94
2021/01/05 10:02:12;;;;;;;18.47;7.67;;;5.00;99.90;;;;;;4923920;29;20193;-94
2021/01/05 10:04:38;;;;;;;15.00;7.83;;;5.00;99.90;;;;;;4910504;29;20188;-94
2021/01/05 10:07:04;;;;;;;17.13;8.47;;;5.00;99.90;;;;;;4922846;29;20180;-95
2021/01/05 10:09:30;;;;;;;16.17;7.73;;;5.00;99.90;;;;;;4904226;29;20200;-94
2021/01/05 10:11:56;;;;;;;20.37;8.80;;;5.00;99.90;;;;;;4920206;29;20262;-94
2021/01/05 10:14:24;;;;;;;21.63;9.20;;;5.00;99.90;;;;;;4902159;29;20669;-91
2021/01/05 10:16:54;;;;;;;19.77;8.97;;;5.00;99.90;;;;;;4922697;29;20212;-96
2021/01/05 10:19:20;;;;;;;20.13;10.13;;;5.10;99.90;;;;;;4929415;29;20192;-92
2021/01/05 10:21:52;;;;;;;25.40;9.93;;;5.00;99.90;;;;;;4926644;29;20194;-93
2021/01/05 10:24:18;;;;;;;15.40;8.40;;;4.90;99.90;;;;;;4922401;29;20208;-91
2021/01/05 10:26:54;;;;;;;17.30;7.83;;;5.00;99.90;;;;;;4920987;29;20555;-95
2021/01/05 10:29:21;;;;;;;13.67;7.30;;;5.00;99.90;;;;;;4918233;29;20716;-91
2021/01/05 10:31:47;;;;;;;13.90;7.80;;;5.10;99.90;;;;;;4922327;29;20184;-95
2021/01/05 10:34:15;;;;;;;13.67;8.17;;;5.00;99.90;;;;;;4919425;29;20188;-94
2021/01/05 10:36:41;;;;;;;16.70;8.23;;;5.00;99.90;;;;;;4920631;29;20212;-93
2021/01/05 10:39:09;;;;;;;13.80;6.93;;;5.00;99.90;;;;;;4903130;29;20222;-94
2021/01/05 10:41:43;;;;;;;16.43;6.80;;;5.00;99.90;;;;;;4924972;29;20208;-96
2021/01/05 10:44:10;;;;;;;15.97;6.83;;;4.90;99.90;;;;;;4921493;29;20252;-94
2021/01/05 10:46:36;;;;;;;18.20;9.30;;;4.90;99.90;;;;;;4922283;29;20188;-94
2021/01/05 10:49:02;;;;;;;26.17;11.33;;;4.90;99.90;;;;;;4919475;29;20247;-90
2021/01/05 10:51:28;;;;;;;22.50;9.77;;;4.90;99.90;;;;;;4919967;29;20244;-91
2021/01/05 10:53:54;;;;;;;21.07;9.30;;;4.90;99.90;;;;;;4921092;29;21478;-92
2021/01/05 10:56:20;;;;;;;22.37;10.90;;;4.90;99.90;;;;;;4920856;29;20192;-92
2021/01/05 10:58:46;;;;;;;16.40;9.40;;;4.90;99.90;;;;;;4917335;29;20191;-88
2021/01/05 11:01:15;;;;;;;16.97;9.30;;;4.90;99.90;;;;;;4921355;29;20189;-95
2021/01/05 11:03:40;;;;;;;17.67;8.97;;;4.90;99.90;;;;;;4923233;29;20194;-90
2021/01/05 11:06:07;;;;;;;17.73;9.07;;;4.80;99.90;;;;;;4919993;29;20194;-96
2021/01/05 11:08:36;;;;;;;20.00;10.13;;;4.80;99.90;;;;;;4921704;29;20545;-95
2021/01/05 11:11:04;;;;;;;17.83;8.50;;;4.80;99.90;;;;;;4918573;29;20190;-93
2021/01/05 11:13:32;;;;;;;17.80;9.17;;;4.80;99.90;;;;;;4918814;29;20268;-93
2021/01/05 11:15:58;;;;;;;17.30;8.27;;;4.70;99.90;;;;;;4905301;29;20697;-93
2021/01/05 11:18:24;;;;;;;17.93;8.63;;;5.60;99.90;;;;;;4919977;29;20227;-94
2021/01/05 11:20:51;;;;;;;25.00;10.23;;;4.80;99.90;;;;;;4922314;29;20191;-92
2021/01/05 11:23:16;;;;;;;17.23;9.07;;;4.70;99.90;;;;;;4922549;29;20185;-94
2021/01/05 11:25:43;;;;;;;21.50;10.40;;;4.90;99.90;;;;;;4923487;29;20254;-94
2021/01/05 11:28:12;;;;;;;21.53;9.87;;;4.70;99.90;;;;;;4920232;29;20210;-94
2021/01/05 11:30:38;;;;;;;22.73;9.87;;;4.90;99.90;;;;;;4932267;29;20227;-92
2021/01/05 11:33:03;;;;;;;47.93;14.00;;;4.70;99.90;;;;;;4900103;29;20194;-93
2021/01/05 11:35:29;;;;;;;48.77;17.30;;;2.50;99.90;;;;;;4899082;29;20795;-90
2021/01/05 11:37:58;;;;;;;26.77;11.90;;;4.70;99.90;;;;;;4916852;29;20210;-94
2021/01/05 11:40:24;;;;;;;32.77;16.40;;;4.20;99.90;;;;;;4924187;29;20332;-94
2021/01/05 11:42:50;;;;;;;21.17;10.20;;;4.60;99.90;;;;;;4918517;29;20716;-95
2021/01/05 11:45:18;;;;;;;21.33;9.60;;;4.70;99.90;;;;;;4919210;29;20218;-95
2021/01/05 11:47:44;;;;;;;15.00;8.23;;;4.80;99.90;;;;;;4926814;29;20187;-94
2021/01/05 11:50:11;;;;;;;13.07;7.30;;;4.70;99.90;;;;;;4918784;29;20206;-94
2021/01/05 11:52:41;;;;;;;26.20;12.37;;;4.70;99.90;;;;;;4919516;29;20188;-96
2021/01/05 11:55:08;;;;;;;22.87;10.90;;;3.10;99.90;;;;;;4924953;29;20183;-95
2021/01/05 11:57:34;;;;;;;14.07;8.20;;;4.60;99.90;;;;;;4922568;29;20230;-95
2021/01/05 12:02:33;;;;;;;13.53;8.17;;;4.40;99.90;;;;;;4829915;23;20914;-93
2021/01/05 12:04:59;;;;;;;16.67;9.43;;;4.40;99.90;;;;;;4925081;29;20236;-94
2021/01/05 12:07:25;;;;;;;18.37;8.60;;;4.70;99.90;;;;;;5022868;23;20282;-96
2021/01/05 12:09:54;;;;;;;13.40;7.17;;;4.30;99.90;;;;;;4937475;29;20178;-96
2021/01/05 12:12:20;;;;;;;16.23;8.17;;;4.30;99.90;;;;;;4944290;29;20295;-93
2021/01/05 12:14:46;;;;;;;15.10;7.80;;;4.30;99.90;;;;;;4925564;29;20174;-96
2021/01/05 12:17:11;;;;;;;14.83;7.67;;;4.30;99.90;;;;;;4950437;29;20209;-95
2021/01/05 12:19:43;;;;;;;12.83;7.10;;;4.20;99.90;;;;;;4935916;29;20179;-91
2021/01/05 12:22:11;;;;;;;14.83;7.70;;;4.20;99.90;;;;;;4941255;29;20153;-89
2021/01/05 12:24:42;;;;;;;15.00;7.97;;;4.20;99.90;;;;;;4950529;29;20186;-89
2021/01/05 12:27:12;;;;;;;14.40;8.70;;;5.40;99.90;;;;;;4949190;29;20191;-89
2021/01/05 12:29:41;;;;;;;13.97;7.73;;;4.30;99.90;;;;;;4941628;29;20281;-91
2021/01/05 12:32:13;;;;;;;12.83;7.60;;;4.20;99.90;;;;;;4936018;29;20188;-94
2021/01/05 12:34:50;;;;;;;14.40;8.23;;;4.00;99.90;;;;;;4947566;29;20179;-90
2021/01/05 12:37:20;;;;;;;16.77;9.30;;;4.00;99.90;;;;;;4949650;29;20267;-92
2021/01/05 12:39:46;;;;;;;19.63;9.73;;;4.10;99.90;;;;;;4926309;29;20187;-93
2021/01/05 12:42:23;;;;;;;17.27;8.37;;;4.00;99.90;;;;;;4950898;29;20291;-92
2021/01/05 12:44:52;;;;;;;12.23;7.73;;;3.90;99.90;;;;;;4945345;29;20230;-93
2021/01/05 12:47:22;;;;;;;18.47;9.63;;;3.90;99.90;;;;;;4949374;29;20195;-93
2021/01/05 12:49:49;;;;;;;12.23;7.10;;;2.10;99.90;;;;;;4945825;29;20180;-93
2021/01/05 12:52:14;;;;;;;10.00;5.70;;;4.80;99.90;;;;;;4953337;28;20188;-92
2021/01/05 12:54:45;;;;;;;9.70;5.63;;;3.90;99.90;;;;;;4931206;29;20184;-92
2021/01/05 12:57:14;;;;;;;17.20;6.63;;;5.10;99.90;;;;;;4953819;29;20210;-95
2021/01/05 12:59:41;;;;;;;12.37;7.33;;;3.80;99.90;;;;;;4935478;29;20179;-94
2021/01/05 13:02:29;;;;;;;22.80;11.50;;;3.50;99.90;;;;;;4934351;29;20236;-95
2021/01/05 13:05:01;;;;;;;57.93;25.40;;;3.50;99.90;;;;;;4934503;29;20245;-92